KOCW/OCW METAR and TAF weather

Enter ICAO airport designator
Station Type Date Time Source
KOCW METAR 2019/04/19 11:00 UTC NOAA

KOCW 191100Z AUTO 17012G17KT 10SM BKN022 BKN029 OVC060 22/18 A2986 RMK AO2 T02160180


Station Type Date Time Source
KOCW Decoded METAR 2019/04/19 11:00 UTC NOAA

Washington, Warren Field Airport, NC, United States (KOCW) 35-34-14N 077-02-59W
Apr 19, 2019 - 07:00 AM EDT / 2019.04.19 1100 UTC
Wind: from the S (170 degrees) at 14 MPH (12 KT) gusting to 20 MPH (17 KT):0
Visibility: 10 mile(s):0
Sky conditions: overcast
Temperature: 70.9 F (21.6 C)
Dew Point: 64.4 F (18.0 C)
Relative Humidity: 79%
Pressure (altimeter): 29.86 in. Hg (1011 hPa)
ob: KOCW 191100Z AUTO 17012G17KT 10SM BKN022 BKN029 OVC060 22/18 A2986 RMK AO2 T02160180
cycle: 11

Station Type Date Time Source
KOCW TAF UTC NOAA

Error!

Example: see airport list